sensor_id;sensor_type;location;lat;lon;timestamp;P1;durP1;ratioP1;P2;durP2;ratioP2
11100;SDS011;5604;50.722;7.078;2022-10-16T00:01:43;684.97;;;650.53;;
11100;SDS011;5604;50.722;7.078;2022-10-16T00:04:12;715.57;;;678.27;;
11100;SDS011;5604;50.722;7.078;2022-10-16T00:06:40;696.67;;;661.03;;
11100;SDS011;5604;50.722;7.078;2022-10-16T00:09:09;716.90;;;679.00;;
11100;SDS011;5604;50.722;7.078;2022-10-16T00:11:38;739.10;;;699.63;;
11100;SDS011;5604;50.722;7.078;2022-10-16T00:14:09;716.37;;;678.37;;
11100;SDS011;5604;50.722;7.078;2022-10-16T00:16:39;755.17;;;713.90;;
11100;SDS011;5604;50.722;7.078;2022-10-16T00:19:08;767.03;;;724.70;;
11100;SDS011;5604;50.722;7.078;2022-10-16T00:21:37;763.63;;;721.40;;
11100;SDS011;5604;50.722;7.078;2022-10-16T00:24:24;736.83;;;697.73;;
11100;SDS011;5604;50.722;7.078;2022-10-16T00:26:52;739.07;;;699.50;;
11100;SDS011;5604;50.722;7.078;2022-10-16T00:29:21;764.43;;;722.50;;
11100;SDS011;5604;50.722;7.078;2022-10-16T00:31:49;773.73;;;730.33;;
11100;SDS011;5604;50.722;7.078;2022-10-16T00:34:17;736.83;;;696.83;;
11100;SDS011;5604;50.722;7.078;2022-10-16T00:36:46;742.63;;;703.03;;
11100;SDS011;5604;50.722;7.078;2022-10-16T00:39:14;716.63;;;679.17;;
11100;SDS011;5604;50.722;7.078;2022-10-16T00:41:42;715.60;;;678.17;;
11100;SDS011;5604;50.722;7.078;2022-10-16T00:47:11;683.50;;;649.10;;
11100;SDS011;5604;50.722;7.078;2022-10-16T00:49:50;673.67;;;639.80;;
11100;SDS011;5604;50.722;7.078;2022-10-16T00:52:19;686.33;;;652.00;;
11100;SDS011;5604;50.722;7.078;2022-10-16T00:54:48;697.43;;;661.67;;
11100;SDS011;5604;50.722;7.078;2022-10-16T00:57:17;690.57;;;655.50;;
11100;SDS011;5604;50.722;7.078;2022-10-16T00:59:47;674.20;;;641.10;;
11100;SDS011;5604;50.722;7.078;2022-10-16T01:02:16;678.60;;;645.20;;
11100;SDS011;5604;50.722;7.078;2022-10-16T01:04:45;675.33;;;642.03;;
11100;SDS011;5604;50.722;7.078;2022-10-16T01:07:17;691.60;;;657.00;;
11100;SDS011;5604;50.722;7.078;2022-10-16T01:09:54;668.40;;;635.53;;
11100;SDS011;5604;50.722;7.078;2022-10-16T01:12:32;670.90;;;638.23;;
11100;SDS011;5604;50.722;7.078;2022-10-16T01:15:08;653.70;;;622.23;;
11100;SDS011;5604;50.722;7.078;2022-10-16T01:17:41;674.43;;;641.27;;
11100;SDS011;5604;50.722;7.078;2022-10-16T01:20:15;673.80;;;640.87;;
11100;SDS011;5604;50.722;7.078;2022-10-16T01:22:55;677.70;;;644.23;;
11100;SDS011;5604;50.722;7.078;2022-10-16T01:25:29;667.10;;;634.63;;
11100;SDS011;5604;50.722;7.078;2022-10-16T01:28:06;673.63;;;640.77;;
11100;SDS011;5604;50.722;7.078;2022-10-16T01:30:37;671.37;;;638.63;;
11100;SDS011;5604;50.722;7.078;2022-10-16T01:33:06;676.63;;;643.83;;
11100;SDS011;5604;50.722;7.078;2022-10-16T01:35:38;674.97;;;642.07;;
11100;SDS011;5604;50.722;7.078;2022-10-16T01:38:10;669.93;;;637.20;;
11100;SDS011;5604;50.722;7.078;2022-10-16T01:40:42;684.37;;;650.83;;
11100;SDS011;5604;50.722;7.078;2022-10-16T01:43:15;677.17;;;643.93;;
11100;SDS011;5604;50.722;7.078;2022-10-16T01:45:45;677.87;;;644.20;;
11100;SDS011;5604;50.722;7.078;2022-10-16T01:48:18;685.10;;;650.90;;
11100;SDS011;5604;50.722;7.078;2022-10-16T01:50:50;688.87;;;654.90;;
11100;SDS011;5604;50.722;7.078;2022-10-16T01:53:21;688.83;;;654.47;;
11100;SDS011;5604;50.722;7.078;2022-10-16T01:55:50;701.10;;;665.97;;
11100;SDS011;5604;50.722;7.078;2022-10-16T01:58:22;708.23;;;672.43;;
11100;SDS011;5604;50.722;7.078;2022-10-16T02:00:51;717.87;;;681.13;;
11100;SDS011;5604;50.722;7.078;2022-10-16T02:03:22;713.23;;;676.47;;
11100;SDS011;5604;50.722;7.078;2022-10-16T02:05:51;727.27;;;689.73;;
11100;SDS011;5604;50.722;7.078;2022-10-16T02:08:21;734.57;;;695.70;;
11100;SDS011;5604;50.722;7.078;2022-10-16T02:10:50;729.00;;;690.70;;
11100;SDS011;5604;50.722;7.078;2022-10-16T02:13:21;717.37;;;680.23;;
11100;SDS011;5604;50.722;7.078;2022-10-16T02:15:51;696.60;;;660.73;;
11100;SDS011;5604;50.722;7.078;2022-10-16T02:18:20;686.83;;;652.33;;
11100;SDS011;5604;50.722;7.078;2022-10-16T02:20:50;652.67;;;620.97;;
11100;SDS011;5604;50.722;7.078;2022-10-16T02:23:19;637.80;;;607.57;;
11100;SDS011;5604;50.722;7.078;2022-10-16T02:25:53;634.17;;;604.07;;
11100;SDS011;5604;50.722;7.078;2022-10-16T02:28:23;642.07;;;611.50;;
11100;SDS011;5604;50.722;7.078;2022-10-16T02:30:55;686.20;;;651.80;;
11100;SDS011;5604;50.722;7.078;2022-10-16T02:33:25;705.57;;;669.73;;
11100;SDS011;5604;50.722;7.078;2022-10-16T02:35:56;729.93;;;691.63;;
11100;SDS011;5604;50.722;7.078;2022-10-16T02:38:25;729.83;;;691.53;;
11100;SDS011;5604;50.722;7.078;2022-10-16T02:40:53;778.23;;;735.47;;
11100;SDS011;5604;50.722;7.078;2022-10-16T02:43:24;782.03;;;738.63;;
11100;SDS011;5604;50.722;7.078;2022-10-16T02:45:52;793.57;;;748.63;;
11100;SDS011;5604;50.722;7.078;2022-10-16T02:48:20;822.33;;;774.57;;
11100;SDS011;5604;50.722;7.078;2022-10-16T02:50:48;790.93;;;746.23;;
11100;SDS011;5604;50.722;7.078;2022-10-16T02:53:16;821.03;;;773.63;;
11100;SDS011;5604;50.722;7.078;2022-10-16T02:55:44;829.77;;;781.10;;
11100;SDS011;5604;50.722;7.078;2022-10-16T02:58:12;827.00;;;778.60;;
11100;SDS011;5604;50.722;7.078;2022-10-16T03:00:42;815.23;;;768.03;;
11100;SDS011;5604;50.722;7.078;2022-10-16T03:03:10;835.33;;;786.40;;
11100;SDS011;5604;50.722;7.078;2022-10-16T03:05:38;857.23;;;805.63;;
11100;SDS011;5604;50.722;7.078;2022-10-16T03:08:06;848.90;;;797.63;;
11100;SDS011;5604;50.722;7.078;2022-10-16T03:10:34;849.30;;;798.17;;
11100;SDS011;5604;50.722;7.078;2022-10-16T03:13:02;831.17;;;781.77;;
11100;SDS011;5604;50.722;7.078;2022-10-16T03:15:30;873.87;;;820.40;;
11100;SDS011;5604;50.722;7.078;2022-10-16T03:18:00;887.97;;;832.43;;
11100;SDS011;5604;50.722;7.078;2022-10-16T03:20:28;901.57;;;844.47;;
11100;SDS011;5604;50.722;7.078;2022-10-16T03:22:56;915.50;;;857.17;;
11100;SDS011;5604;50.722;7.078;2022-10-16T03:25:24;914.67;;;856.07;;
11100;SDS011;5604;50.722;7.078;2022-10-16T03:27:52;917.20;;;858.23;;
11100;SDS011;5604;50.722;7.078;2022-10-16T03:30:20;930.40;;;870.03;;
11100;SDS011;5604;50.722;7.078;2022-10-16T03:32:48;917.37;;;858.00;;
11100;SDS011;5604;50.722;7.078;2022-10-16T03:35:22;924.07;;;864.30;;
11100;SDS011;5604;50.722;7.078;2022-10-16T03:37:50;931.80;;;871.23;;
11100;SDS011;5604;50.722;7.078;2022-10-16T03:40:19;938.67;;;877.10;;
11100;SDS011;5604;50.722;7.078;2022-10-16T03:42:47;930.60;;;869.77;;
11100;SDS011;5604;50.722;7.078;2022-10-16T03:45:15;934.97;;;874.07;;
11100;SDS011;5604;50.722;7.078;2022-10-16T03:47:43;946.10;;;884.03;;
11100;SDS011;5604;50.722;7.078;2022-10-16T03:50:11;937.60;;;876.57;;
11100;SDS011;5604;50.722;7.078;2022-10-16T03:52:41;939.97;;;878.53;;
11100;SDS011;5604;50.722;7.078;2022-10-16T03:55:09;930.93;;;870.57;;
11100;SDS011;5604;50.722;7.078;2022-10-16T03:57:37;936.57;;;875.07;;
11100;SDS011;5604;50.722;7.078;2022-10-16T04:00:05;940.27;;;878.67;;
11100;SDS011;5604;50.722;7.078;2022-10-16T04:02:40;931.83;;;871.30;;
11100;SDS011;5604;50.722;7.078;2022-10-16T04:05:08;941.03;;;879.13;;
11100;SDS011;5604;50.722;7.078;2022-10-16T04:07:36;942.37;;;880.43;;
11100;SDS011;5604;50.722;7.078;2022-10-16T04:10:07;935.60;;;874.33;;
11100;SDS011;5604;50.722;7.078;2022-10-16T04:12:35;938.23;;;877.23;;
11100;SDS011;5604;50.722;7.078;2022-10-16T04:15:04;936.53;;;875.03;;
11100;SDS011;5604;50.722;7.078;2022-10-16T04:17:32;940.83;;;878.90;;
11100;SDS011;5604;50.722;7.078;2022-10-16T04:20:00;940.43;;;878.87;;
11100;SDS011;5604;50.722;7.078;2022-10-16T04:22:28;937.77;;;876.23;;
11100;SDS011;5604;50.722;7.078;2022-10-16T04:24:56;942.87;;;881.20;;
11100;SDS011;5604;50.722;7.078;2022-10-16T04:27:26;934.93;;;873.93;;
11100;SDS011;5604;50.722;7.078;2022-10-16T04:29:55;929.67;;;868.93;;
11100;SDS011;5604;50.722;7.078;2022-10-16T04:32:24;925.03;;;865.47;;
11100;SDS011;5604;50.722;7.078;2022-10-16T04:34:52;933.90;;;872.57;;
11100;SDS011;5604;50.722;7.078;2022-10-16T04:37:23;932.20;;;871.43;;
11100;SDS011;5604;50.722;7.078;2022-10-16T04:39:51;927.57;;;867.33;;
11100;SDS011;5604;50.722;7.078;2022-10-16T04:42:20;919.13;;;859.43;;
11100;SDS011;5604;50.722;7.078;2022-10-16T04:44:49;918.73;;;859.67;;
11100;SDS011;5604;50.722;7.078;2022-10-16T04:47:17;934.97;;;874.20;;
11100;SDS011;5604;50.722;7.078;2022-10-16T04:49:46;924.63;;;864.83;;
11100;SDS011;5604;50.722;7.078;2022-10-16T04:52:14;908.93;;;850.90;;
11100;SDS011;5604;50.722;7.078;2022-10-16T04:54:42;910.70;;;852.23;;
11100;SDS011;5604;50.722;7.078;2022-10-16T04:57:11;910.60;;;852.33;;
11100;SDS011;5604;50.722;7.078;2022-10-16T04:59:40;894.73;;;838.50;;
11100;SDS011;5604;50.722;7.078;2022-10-16T05:02:09;887.13;;;832.13;;
11100;SDS011;5604;50.722;7.078;2022-10-16T05:04:37;873.83;;;820.27;;
11100;SDS011;5604;50.722;7.078;2022-10-16T05:07:05;861.83;;;809.57;;
11100;SDS011;5604;50.722;7.078;2022-10-16T05:09:33;846.37;;;795.63;;
11100;SDS011;5604;50.722;7.078;2022-10-16T05:12:02;851.87;;;800.47;;
11100;SDS011;5604;50.722;7.078;2022-10-16T05:14:30;832.40;;;783.47;;
11100;SDS011;5604;50.722;7.078;2022-10-16T05:16:59;824.17;;;775.50;;
11100;SDS011;5604;50.722;7.078;2022-10-16T05:19:29;818.23;;;770.23;;
11100;SDS011;5604;50.722;7.078;2022-10-16T05:21:57;799.33;;;753.93;;
11100;SDS011;5604;50.722;7.078;2022-10-16T05:24:25;787.23;;;743.17;;
11100;SDS011;5604;50.722;7.078;2022-10-16T05:26:53;783.77;;;740.07;;
11100;SDS011;5604;50.722;7.078;2022-10-16T05:29:22;767.77;;;725.70;;
11100;SDS011;5604;50.722;7.078;2022-10-16T05:31:50;772.07;;;729.93;;
11100;SDS011;5604;50.722;7.078;2022-10-16T05:34:19;754.33;;;713.87;;
11100;SDS011;5604;50.722;7.078;2022-10-16T05:36:49;726.30;;;688.37;;
11100;SDS011;5604;50.722;7.078;2022-10-16T05:39:18;731.90;;;693.30;;
11100;SDS011;5604;50.722;7.078;2022-10-16T05:41:46;739.57;;;700.37;;
11100;SDS011;5604;50.722;7.078;2022-10-16T05:44:17;753.63;;;713.70;;
11100;SDS011;5604;50.722;7.078;2022-10-16T05:46:45;743.73;;;704.07;;
11100;SDS011;5604;50.722;7.078;2022-10-16T05:49:13;744.10;;;705.07;;
11100;SDS011;5604;50.722;7.078;2022-10-16T05:51:42;718.60;;;680.97;;
11100;SDS011;5604;50.722;7.078;2022-10-16T05:54:11;747.17;;;707.53;;
11100;SDS011;5604;50.722;7.078;2022-10-16T05:56:39;741.57;;;702.57;;
11100;SDS011;5604;50.722;7.078;2022-10-16T05:59:08;755.10;;;714.67;;
11100;SDS011;5604;50.722;7.078;2022-10-16T06:01:36;723.37;;;686.17;;
11100;SDS011;5604;50.722;7.078;2022-10-16T06:04:04;742.23;;;703.00;;
11100;SDS011;5604;50.722;7.078;2022-10-16T06:06:33;731.47;;;693.40;;
11100;SDS011;5604;50.722;7.078;2022-10-16T06:09:03;745.27;;;705.80;;
11100;SDS011;5604;50.722;7.078;2022-10-16T06:11:33;749.83;;;709.57;;
11100;SDS011;5604;50.722;7.078;2022-10-16T06:14:01;754.60;;;714.30;;
11100;SDS011;5604;50.722;7.078;2022-10-16T06:16:33;753.43;;;713.07;;
11100;SDS011;5604;50.722;7.078;2022-10-16T06:19:02;753.83;;;713.70;;
11100;SDS011;5604;50.722;7.078;2022-10-16T06:21:32;725.87;;;688.23;;
11100;SDS011;5604;50.722;7.078;2022-10-16T06:24:01;741.63;;;702.43;;
11100;SDS011;5604;50.722;7.078;2022-10-16T06:26:30;741.13;;;702.07;;
11100;SDS011;5604;50.722;7.078;2022-10-16T06:29:00;772.50;;;729.73;;
11100;SDS011;5604;50.722;7.078;2022-10-16T06:31:29;730.83;;;692.50;;
11100;SDS011;5604;50.722;7.078;2022-10-16T06:34:00;753.83;;;713.53;;
11100;SDS011;5604;50.722;7.078;2022-10-16T06:36:29;737.70;;;698.83;;
11100;SDS011;5604;50.722;7.078;2022-10-16T06:38:57;740.03;;;700.77;;
11100;SDS011;5604;50.722;7.078;2022-10-16T06:41:26;739.87;;;700.83;;
11100;SDS011;5604;50.722;7.078;2022-10-16T06:43:54;721.17;;;683.67;;
11100;SDS011;5604;50.722;7.078;2022-10-16T06:46:24;724.10;;;686.87;;
11100;SDS011;5604;50.722;7.078;2022-10-16T06:48:52;727.50;;;689.70;;
11100;SDS011;5604;50.722;7.078;2022-10-16T06:51:21;736.43;;;697.63;;
11100;SDS011;5604;50.722;7.078;2022-10-16T06:53:51;731.63;;;693.47;;
11100;SDS011;5604;50.722;7.078;2022-10-16T06:56:29;718.40;;;681.43;;
11100;SDS011;5604;50.722;7.078;2022-10-16T06:58:58;730.23;;;691.63;;
11100;SDS011;5604;50.722;7.078;2022-10-16T07:01:28;726.57;;;688.67;;
11100;SDS011;5604;50.722;7.078;2022-10-16T07:03:57;723.47;;;685.93;;
11100;SDS011;5604;50.722;7.078;2022-10-16T07:06:25;740.57;;;701.47;;
11100;SDS011;5604;50.722;7.078;2022-10-16T07:08:54;734.17;;;695.77;;
11100;SDS011;5604;50.722;7.078;2022-10-16T07:11:22;754.80;;;714.33;;
11100;SDS011;5604;50.722;7.078;2022-10-16T07:13:51;765.27;;;723.70;;
11100;SDS011;5604;50.722;7.078;2022-10-16T07:16:22;782.93;;;739.40;;
11100;SDS011;5604;50.722;7.078;2022-10-16T07:18:54;745.13;;;705.70;;
11100;SDS011;5604;50.722;7.078;2022-10-16T07:21:27;736.67;;;697.43;;
11100;SDS011;5604;50.722;7.078;2022-10-16T07:23:57;744.03;;;704.60;;
11100;SDS011;5604;50.722;7.078;2022-10-16T07:26:29;742.13;;;702.80;;
11100;SDS011;5604;50.722;7.078;2022-10-16T07:28:58;757.77;;;716.27;;
11100;SDS011;5604;50.722;7.078;2022-10-16T07:31:27;766.07;;;724.17;;
11100;SDS011;5604;50.722;7.078;2022-10-16T07:33:57;764.33;;;722.27;;
11100;SDS011;5604;50.722;7.078;2022-10-16T07:36:25;779.33;;;736.03;;
11100;SDS011;5604;50.722;7.078;2022-10-16T07:38:54;797.83;;;752.77;;
11100;SDS011;5604;50.722;7.078;2022-10-16T07:41:26;771.50;;;729.23;;
11100;SDS011;5604;50.722;7.078;2022-10-16T07:43:54;786.90;;;743.17;;
11100;SDS011;5604;50.722;7.078;2022-10-16T07:46:24;787.03;;;743.10;;
11100;SDS011;5604;50.722;7.078;2022-10-16T07:48:52;790.77;;;746.50;;
11100;SDS011;5604;50.722;7.078;2022-10-16T07:51:23;788.57;;;744.20;;
11100;SDS011;5604;50.722;7.078;2022-10-16T07:53:52;792.00;;;747.37;;
11100;SDS011;5604;50.722;7.078;2022-10-16T07:56:20;813.47;;;766.47;;
11100;SDS011;5604;50.722;7.078;2022-10-16T07:58:49;790.37;;;745.83;;
11100;SDS011;5604;50.722;7.078;2022-10-16T08:01:18;823.90;;;775.37;;
11100;SDS011;5604;50.722;7.078;2022-10-16T08:03:47;867.33;;;814.17;;
11100;SDS011;5604;50.722;7.078;2022-10-16T08:06:17;885.27;;;829.73;;
11100;SDS011;5604;50.722;7.078;2022-10-16T08:08:54;883.73;;;828.63;;
11100;SDS011;5604;50.722;7.078;2022-10-16T08:11:23;905.10;;;847.33;;
11100;SDS011;5604;50.722;7.078;2022-10-16T08:13:52;901.10;;;844.20;;
11100;SDS011;5604;50.722;7.078;2022-10-16T08:16:21;901.20;;;844.07;;
11100;SDS011;5604;50.722;7.078;2022-10-16T08:18:50;912.27;;;853.33;;
11100;SDS011;5604;50.722;7.078;2022-10-16T08:21:19;912.80;;;854.60;;
11100;SDS011;5604;50.722;7.078;2022-10-16T08:23:49;909.37;;;851.23;;
11100;SDS011;5604;50.722;7.078;2022-10-16T08:26:25;916.20;;;857.20;;
11100;SDS011;5604;50.722;7.078;2022-10-16T08:28:54;922.87;;;862.97;;
11100;SDS011;5604;50.722;7.078;2022-10-16T08:31:22;912.33;;;854.13;;
11100;SDS011;5604;50.722;7.078;2022-10-16T08:33:52;917.63;;;858.77;;
11100;SDS011;5604;50.722;7.078;2022-10-16T08:36:21;908.17;;;849.97;;
11100;SDS011;5604;50.722;7.078;2022-10-16T08:38:49;891.80;;;835.50;;
11100;SDS011;5604;50.722;7.078;2022-10-16T08:41:22;896.37;;;839.90;;
11100;SDS011;5604;50.722;7.078;2022-10-16T08:44:02;897.10;;;840.73;;
11100;SDS011;5604;50.722;7.078;2022-10-16T08:46:41;905.07;;;847.80;;
11100;SDS011;5604;50.722;7.078;2022-10-16T08:49:16;908.10;;;850.97;;
11100;SDS011;5604;50.722;7.078;2022-10-16T08:51:44;896.40;;;840.13;;
11100;SDS011;5604;50.722;7.078;2022-10-16T08:54:21;908.87;;;851.57;;
11100;SDS011;5604;50.722;7.078;2022-10-16T08:56:55;907.87;;;850.43;;
11100;SDS011;5604;50.722;7.078;2022-10-16T08:59:24;875.43;;;821.40;;
11100;SDS011;5604;50.722;7.078;2022-10-16T09:01:52;875.20;;;821.57;;
11100;SDS011;5604;50.722;7.078;2022-10-16T09:04:26;867.23;;;813.73;;
11100;SDS011;5604;50.722;7.078;2022-10-16T09:07:17;897.70;;;841.33;;
11100;SDS011;5604;50.722;7.078;2022-10-16T09:09:53;893.10;;;836.90;;
11100;SDS011;5604;50.722;7.078;2022-10-16T09:12:31;875.07;;;821.13;;
11100;SDS011;5604;50.722;7.078;2022-10-16T09:15:07;866.20;;;813.23;;
11100;SDS011;5604;50.722;7.078;2022-10-16T09:17:44;889.23;;;833.20;;
11100;SDS011;5604;50.722;7.078;2022-10-16T09:20:19;860.43;;;808.10;;
11100;SDS011;5604;50.722;7.078;2022-10-16T09:22:52;899.80;;;842.90;;
11100;SDS011;5604;50.722;7.078;2022-10-16T09:25:23;843.97;;;793.37;;
11100;SDS011;5604;50.722;7.078;2022-10-16T09:27:52;840.03;;;789.50;;
11100;SDS011;5604;50.722;7.078;2022-10-16T09:30:21;844.97;;;793.93;;
11100;SDS011;5604;50.722;7.078;2022-10-16T09:32:50;777.03;;;732.83;;
11100;SDS011;5604;50.722;7.078;2022-10-16T09:35:20;733.43;;;693.30;;
11100;SDS011;5604;50.722;7.078;2022-10-16T09:37:50;687.67;;;651.63;;
11100;SDS011;5604;50.722;7.078;2022-10-16T09:40:28;649.00;;;616.43;;
11100;SDS011;5604;50.722;7.078;2022-10-16T09:43:15;589.30;;;561.47;;
11100;SDS011;5604;50.722;7.078;2022-10-16T09:46:03;643.03;;;611.27;;
11100;SDS011;5604;50.722;7.078;2022-10-16T09:48:34;605.37;;;576.67;;
11100;SDS011;5604;50.722;7.078;2022-10-16T09:51:15;572.90;;;546.63;;
11100;SDS011;5604;50.722;7.078;2022-10-16T09:53:53;556.97;;;531.93;;
11100;SDS011;5604;50.722;7.078;2022-10-16T09:56:28;581.77;;;555.67;;
11100;SDS011;5604;50.722;7.078;2022-10-16T09:59:01;588.53;;;561.67;;
11100;SDS011;5604;50.722;7.078;2022-10-16T10:01:36;611.27;;;582.67;;
11100;SDS011;5604;50.722;7.078;2022-10-16T10:04:05;643.10;;;611.87;;
11100;SDS011;5604;50.722;7.078;2022-10-16T10:06:35;676.57;;;642.60;;
11100;SDS011;5604;50.722;7.078;2022-10-16T10:09:19;729.70;;;691.07;;
11100;SDS011;5604;50.722;7.078;2022-10-16T10:11:49;732.07;;;692.73;;
11100;SDS011;5604;50.722;7.078;2022-10-16T10:14:22;771.67;;;728.77;;
11100;SDS011;5604;50.722;7.078;2022-10-16T10:17:09;786.43;;;742.80;;
11100;SDS011;5604;50.722;7.078;2022-10-16T10:19:44;802.37;;;756.77;;
11100;SDS011;5604;50.722;7.078;2022-10-16T10:22:25;770.20;;;727.10;;
11100;SDS011;5604;50.722;7.078;2022-10-16T10:27:52;823.13;;;774.73;;
11100;SDS011;5604;50.722;7.078;2022-10-16T10:30:48;806.07;;;759.37;;
11100;SDS011;5604;50.722;7.078;2022-10-16T10:33:25;813.47;;;766.03;;
11100;SDS011;5604;50.722;7.078;2022-10-16T10:36:05;820.80;;;772.63;;
11100;SDS011;5604;50.722;7.078;2022-10-16T10:38:41;812.60;;;764.77;;
11100;SDS011;5604;50.722;7.078;2022-10-16T10:41:25;831.03;;;781.67;;
11100;SDS011;5604;50.722;7.078;2022-10-16T10:44:03;851.60;;;799.37;;
11100;SDS011;5604;50.722;7.078;2022-10-16T10:46:38;891.53;;;834.67;;
11100;SDS011;5604;50.722;7.078;2022-10-16T10:49:20;846.33;;;794.93;;
11100;SDS011;5604;50.722;7.078;2022-10-16T10:52:02;883.50;;;827.17;;
11100;SDS011;5604;50.722;7.078;2022-10-16T10:54:41;890.27;;;833.63;;
11100;SDS011;5604;50.722;7.078;2022-10-16T10:57:17;893.00;;;835.93;;
11100;SDS011;5604;50.722;7.078;2022-10-16T10:59:55;905.53;;;846.77;;
11100;SDS011;5604;50.722;7.078;2022-10-16T11:02:34;909.97;;;850.57;;
11100;SDS011;5604;50.722;7.078;2022-10-16T11:08:00;918.50;;;858.10;;
11100;SDS011;5604;50.722;7.078;2022-10-16T11:10:31;940.70;;;877.73;;
11100;SDS011;5604;50.722;7.078;2022-10-16T11:13:05;926.33;;;865.00;;
11100;SDS011;5604;50.722;7.078;2022-10-16T11:15:39;934.50;;;872.30;;
11100;SDS011;5604;50.722;7.078;2022-10-16T11:18:11;927.57;;;865.57;;
11100;SDS011;5604;50.722;7.078;2022-10-16T11:20:45;933.73;;;871.33;;
11100;SDS011;5604;50.722;7.078;2022-10-16T11:23:16;924.87;;;864.10;;
11100;SDS011;5604;50.722;7.078;2022-10-16T11:25:46;936.60;;;873.63;;
11100;SDS011;5604;50.722;7.078;2022-10-16T11:28:16;950.53;;;885.70;;
11100;SDS011;5604;50.722;7.078;2022-10-16T11:30:49;939.07;;;875.87;;
11100;SDS011;5604;50.722;7.078;2022-10-16T11:33:26;933.00;;;870.40;;
11100;SDS011;5604;50.722;7.078;2022-10-16T11:36:00;938.23;;;874.90;;
11100;SDS011;5604;50.722;7.078;2022-10-16T11:38:34;932.40;;;869.50;;
11100;SDS011;5604;50.722;7.078;2022-10-16T11:41:09;936.70;;;874.03;;
11100;SDS011;5604;50.722;7.078;2022-10-16T11:43:44;942.23;;;878.83;;
11100;SDS011;5604;50.722;7.078;2022-10-16T11:46:17;937.13;;;873.53;;
11100;SDS011;5604;50.722;7.078;2022-10-16T11:48:49;943.70;;;879.20;;
11100;SDS011;5604;50.722;7.078;2022-10-16T11:51:20;942.07;;;878.57;;
11100;SDS011;5604;50.722;7.078;2022-10-16T11:53:51;943.43;;;879.77;;
11100;SDS011;5604;50.722;7.078;2022-10-16T11:56:23;946.20;;;882.23;;
11100;SDS011;5604;50.722;7.078;2022-10-16T11:58:54;940.57;;;878.07;;
11100;SDS011;5604;50.722;7.078;2022-10-16T12:01:26;937.60;;;874.93;;
11100;SDS011;5604;50.722;7.078;2022-10-16T12:04:04;939.13;;;876.13;;
11100;SDS011;5604;50.722;7.078;2022-10-16T12:06:44;949.80;;;885.63;;
11100;SDS011;5604;50.722;7.078;2022-10-16T12:09:15;943.13;;;879.70;;
11100;SDS011;5604;50.722;7.078;2022-10-16T12:11:48;934.20;;;871.13;;
11100;SDS011;5604;50.722;7.078;2022-10-16T12:14:18;929.10;;;866.83;;
11100;SDS011;5604;50.722;7.078;2022-10-16T12:16:52;928.23;;;865.87;;
11100;SDS011;5604;50.722;7.078;2022-10-16T12:19:23;943.47;;;879.33;;
11100;SDS011;5604;50.722;7.078;2022-10-16T12:21:54;934.43;;;871.80;;
11100;SDS011;5604;50.722;7.078;2022-10-16T12:24:29;943.33;;;879.30;;
11100;SDS011;5604;50.722;7.078;2022-10-16T12:27:00;931.03;;;868.90;;
11100;SDS011;5604;50.722;7.078;2022-10-16T12:29:31;935.23;;;873.30;;
11100;SDS011;5604;50.722;7.078;2022-10-16T12:32:02;920.50;;;858.83;;
11100;SDS011;5604;50.722;7.078;2022-10-16T12:34:35;918.27;;;857.40;;
11100;SDS011;5604;50.722;7.078;2022-10-16T12:37:11;921.97;;;861.23;;
11100;SDS011;5604;50.722;7.078;2022-10-16T12:39:41;920.23;;;859.03;;
11100;SDS011;5604;50.722;7.078;2022-10-16T12:42:20;922.67;;;860.40;;
11100;SDS011;5604;50.722;7.078;2022-10-16T12:45:00;927.63;;;864.87;;
11100;SDS011;5604;50.722;7.078;2022-10-16T12:47:37;939.03;;;874.90;;
11100;SDS011;5604;50.722;7.078;2022-10-16T12:50:26;935.63;;;872.80;;
11100;SDS011;5604;50.722;7.078;2022-10-16T12:52:58;938.07;;;874.70;;
11100;SDS011;5604;50.722;7.078;2022-10-16T12:55:26;928.77;;;866.23;;
11100;SDS011;5604;50.722;7.078;2022-10-16T12:58:00;924.03;;;862.23;;
11100;SDS011;5604;50.722;7.078;2022-10-16T13:00:36;938.13;;;873.60;;
11100;SDS011;5604;50.722;7.078;2022-10-16T13:06:11;933.37;;;870.57;;
11100;SDS011;5604;50.722;7.078;2022-10-16T13:08:58;921.47;;;859.90;;
11100;SDS011;5604;50.722;7.078;2022-10-16T13:11:48;899.03;;;840.83;;
11100;SDS011;5604;50.722;7.078;2022-10-16T13:14:39;914.87;;;854.63;;
11100;SDS011;5604;50.722;7.078;2022-10-16T13:17:17;902.60;;;843.80;;
11100;SDS011;5604;50.722;7.078;2022-10-16T13:19:52;913.33;;;853.60;;
11100;SDS011;5604;50.722;7.078;2022-10-16T13:22:28;903.87;;;844.87;;
11100;SDS011;5604;50.722;7.078;2022-10-16T13:25:02;910.73;;;850.73;;
11100;SDS011;5604;50.722;7.078;2022-10-16T13:27:40;911.73;;;851.37;;
11100;SDS011;5604;50.722;7.078;2022-10-16T13:30:13;917.03;;;856.30;;
11100;SDS011;5604;50.722;7.078;2022-10-16T13:32:44;916.17;;;855.60;;
11100;SDS011;5604;50.722;7.078;2022-10-16T13:35:18;908.07;;;848.47;;
11100;SDS011;5604;50.722;7.078;2022-10-16T13:37:48;914.90;;;854.43;;
11100;SDS011;5604;50.722;7.078;2022-10-16T13:40:21;924.77;;;863.07;;
11100;SDS011;5604;50.722;7.078;2022-10-16T13:42:50;931.73;;;869.30;;
11100;SDS011;5604;50.722;7.078;2022-10-16T13:45:25;927.77;;;865.57;;
11100;SDS011;5604;50.722;7.078;2022-10-16T13:48:02;912.77;;;852.87;;
11100;SDS011;5604;50.722;7.078;2022-10-16T13:50:30;936.20;;;872.77;;
11100;SDS011;5604;50.722;7.078;2022-10-16T13:53:09;938.37;;;874.93;;
11100;SDS011;5604;50.722;7.078;2022-10-16T13:55:40;931.13;;;868.27;;
11100;SDS011;5604;50.722;7.078;2022-10-16T13:58:12;931.30;;;868.20;;
11100;SDS011;5604;50.722;7.078;2022-10-16T14:00:51;917.23;;;856.17;;
11100;SDS011;5604;50.722;7.078;2022-10-16T14:03:21;922.63;;;861.57;;
11100;SDS011;5604;50.722;7.078;2022-10-16T14:05:49;913.63;;;853.47;;
11100;SDS011;5604;50.722;7.078;2022-10-16T14:08:22;925.30;;;863.33;;
11100;SDS011;5604;50.722;7.078;2022-10-16T14:10:52;927.00;;;865.60;;
11100;SDS011;5604;50.722;7.078;2022-10-16T14:13:24;926.87;;;864.97;;
11100;SDS011;5604;50.722;7.078;2022-10-16T14:15:56;921.53;;;860.90;;
11100;SDS011;5604;50.722;7.078;2022-10-16T14:18:25;919.43;;;857.83;;
11100;SDS011;5604;50.722;7.078;2022-10-16T14:21:05;938.77;;;874.83;;
11100;SDS011;5604;50.722;7.078;2022-10-16T14:23:36;934.67;;;871.63;;
11100;SDS011;5604;50.722;7.078;2022-10-16T14:26:06;940.33;;;876.47;;
11100;SDS011;5604;50.722;7.078;2022-10-16T14:28:40;927.73;;;865.30;;
11100;SDS011;5604;50.722;7.078;2022-10-16T14:31:29;932.63;;;869.57;;
11100;SDS011;5604;50.722;7.078;2022-10-16T14:33:59;946.07;;;881.53;;
11100;SDS011;5604;50.722;7.078;2022-10-16T14:36:27;939.93;;;875.87;;
11100;SDS011;5604;50.722;7.078;2022-10-16T14:38:59;962.67;;;894.97;;
11100;SDS011;5604;50.722;7.078;2022-10-16T14:41:29;958.80;;;892.07;;
11100;SDS011;5604;50.722;7.078;2022-10-16T14:44:00;940.60;;;876.70;;
11100;SDS011;5604;50.722;7.078;2022-10-16T14:46:31;941.90;;;877.90;;